createdAt,value
2024-05-09T00:00:10.463Z,100.00
2024-05-09T00:02:44.528Z,100.00
2024-05-09T00:05:15.271Z,100.00
2024-05-09T00:07:45.872Z,100.00
2024-05-09T00:10:25.562Z,100.00
2024-05-09T00:13:03.844Z,100.00
2024-05-09T00:15:34.949Z,100.00
2024-05-09T00:18:08.085Z,100.00
2024-05-09T00:20:41.068Z,100.00
2024-05-09T00:23:13.750Z,100.00
2024-05-09T00:25:48.312Z,100.00
2024-05-09T00:28:18.859Z,100.00
2024-05-09T00:30:49.384Z,100.00
2024-05-09T00:33:20.146Z,100.00
2024-05-09T00:35:50.914Z,100.00
2024-05-09T00:38:22.697Z,100.00
2024-05-09T00:40:55.996Z,100.00
2024-05-09T00:43:26.704Z,100.00
2024-05-09T00:45:57.569Z,100.00
2024-05-09T00:48:30.148Z,100.00
2024-05-09T00:51:01.451Z,100.00
2024-05-09T00:53:32.740Z,100.00
2024-05-09T00:56:08.433Z,100.00
2024-05-09T00:58:39.250Z,100.00
2024-05-09T01:01:11.262Z,100.00
2024-05-09T01:03:41.899Z,100.00
2024-05-09T01:06:12.445Z,100.00
2024-05-09T01:08:45.430Z,100.00
2024-05-09T01:11:18.885Z,100.00
2024-05-09T01:13:49.622Z,100.00
2024-05-09T01:16:20.214Z,100.00
2024-05-09T01:18:51.094Z,100.00
2024-05-09T01:21:21.854Z,100.00
2024-05-09T01:23:55.172Z,100.00
2024-05-09T01:26:25.761Z,100.00
2024-05-09T01:28:56.474Z,100.00
2024-05-09T01:31:27.144Z,100.00
2024-05-09T01:33:57.762Z,100.00
2024-05-09T01:36:28.370Z,100.00
2024-05-09T01:39:01.692Z,100.00
2024-05-09T01:41:32.360Z,100.00
2024-05-09T01:44:03.019Z,100.00
2024-05-09T01:46:33.626Z,100.00
2024-05-09T01:49:04.717Z,100.00
2024-05-09T01:51:35.316Z,100.00
2024-05-09T01:54:09.333Z,100.00
2024-05-09T01:56:39.885Z,100.00
2024-05-09T01:59:10.608Z,100.00
2024-05-09T02:01:56.385Z,100.00
2024-05-09T02:04:28.453Z,100.00
2024-05-09T02:06:59.141Z,100.00
2024-05-09T02:09:32.442Z,100.00
2024-05-09T02:12:03.193Z,100.00
2024-05-09T02:14:33.881Z,100.00
2024-05-09T02:17:04.507Z,100.00
2024-05-09T02:19:35.127Z,100.00
2024-05-09T02:22:05.781Z,100.00
2024-05-09T02:24:38.989Z,100.00
2024-05-09T02:27:09.699Z,100.00
2024-05-09T02:29:40.388Z,100.00
2024-05-09T02:32:11.460Z,100.00
2024-05-09T02:34:42.204Z,100.00
2024-05-09T02:37:13.032Z,100.00
2024-05-09T02:39:43.493Z,100.00
2024-05-09T02:42:14.155Z,100.00
2024-05-09T02:44:41.914Z,100.00
2024-05-09T02:47:12.556Z,100.00
2024-05-09T02:49:40.788Z,100.00
2024-05-09T02:52:11.353Z,100.00
2024-05-09T02:54:39.230Z,100.00
2024-05-09T02:57:12.595Z,100.00
2024-05-09T02:59:40.700Z,100.00
2024-05-09T03:02:11.304Z,100.00
2024-05-09T03:04:41.882Z,100.00
2024-05-09T03:07:12.524Z,100.00
2024-05-09T03:09:47.391Z,100.00
2024-05-09T03:12:20.831Z,100.00
2024-05-09T03:14:51.187Z,100.00
2024-05-09T03:17:24.116Z,100.00
2024-05-09T03:19:52.425Z,100.00
2024-05-09T03:22:22.991Z,100.00
2024-05-09T03:24:50.916Z,100.00
2024-05-09T03:27:24.918Z,100.00
2024-05-09T03:29:52.954Z,100.00
2024-05-09T03:32:23.468Z,100.00
2024-05-09T03:34:51.414Z,100.00
2024-05-09T03:37:21.937Z,100.00
2024-05-09T03:39:52.599Z,100.00
2024-05-09T03:42:25.797Z,100.00
2024-05-09T03:44:56.626Z,100.00
2024-05-09T03:47:27.207Z,100.00
2024-05-09T03:49:57.932Z,100.00
2024-05-09T03:52:26.519Z,100.00
2024-05-09T03:54:57.426Z,100.00
2024-05-09T03:57:28.233Z,100.00
2024-05-09T03:59:58.756Z,100.00
2024-05-09T04:02:27.034Z,100.00
2024-05-09T04:04:57.794Z,100.00
2024-05-09T04:07:25.880Z,100.00
2024-05-09T04:09:56.393Z,100.00
2024-05-09T04:12:27.275Z,100.00
2024-05-09T04:14:58.096Z,100.00
2024-05-09T04:17:28.987Z,100.00
2024-05-09T04:19:57.059Z,100.00
2024-05-09T04:22:27.544Z,100.00
2024-05-09T04:24:55.534Z,100.00
2024-05-09T04:27:26.234Z,100.00
2024-05-09T04:29:57.196Z,100.00
2024-05-09T04:32:27.775Z,100.00
2024-05-09T04:34:56.070Z,100.00
2024-05-09T04:37:26.618Z,100.00
2024-05-09T04:39:54.834Z,100.00
2024-05-09T04:42:25.354Z,100.00
2024-05-09T04:44:58.773Z,100.00
2024-05-09T04:47:29.782Z,100.00
2024-05-09T04:49:58.155Z,100.00
2024-05-09T04:52:28.887Z,100.00
2024-05-09T04:54:58.975Z,100.00
2024-05-09T04:57:29.715Z,100.00
2024-05-09T05:00:04.074Z,100.00
2024-05-09T05:02:38.567Z,100.00
2024-05-09T05:05:07.870Z,100.00
2024-05-09T05:07:42.736Z,100.00
2024-05-09T05:10:15.031Z,100.00
2024-05-09T05:13:07.834Z,100.00
2024-05-09T05:15:41.163Z,100.00
2024-05-09T05:18:09.526Z,100.00
2024-05-09T05:20:40.187Z,100.00
2024-05-09T05:23:12.545Z,100.00
2024-05-09T05:25:43.645Z,100.00
2024-05-09T05:28:11.812Z,100.00
2024-05-09T05:30:45.627Z,100.00
2024-05-09T05:33:16.141Z,100.00
2024-05-09T05:35:47.612Z,100.00
2024-05-09T05:38:15.940Z,100.00
2024-05-09T05:40:46.725Z,100.00
2024-05-09T05:43:18.926Z,100.00
2024-05-09T05:45:52.210Z,100.00
2024-05-09T05:48:20.179Z,100.00
2024-05-09T05:50:52.128Z,100.00
2024-05-09T05:53:20.272Z,100.00
2024-05-09T05:55:50.800Z,100.00
2024-05-09T05:58:20.403Z,100.00
2024-05-09T06:00:55.911Z,100.00
2024-05-09T06:03:23.920Z,100.00
2024-05-09T06:05:54.411Z,100.00
2024-05-09T06:08:22.271Z,100.00
2024-05-09T06:10:52.953Z,100.00
2024-05-09T06:13:20.866Z,100.00
2024-05-09T06:15:54.107Z,100.00
2024-05-09T06:18:22.374Z,100.00
2024-05-09T06:20:53.364Z,100.00
2024-05-09T06:23:22.099Z,100.00
2024-05-09T06:25:53.454Z,100.00
2024-05-09T06:28:26.363Z,100.00
2024-05-09T06:31:01.380Z,100.00
2024-05-09T06:33:29.913Z,100.00
2024-05-09T06:36:02.031Z,100.00
2024-05-09T06:38:30.343Z,100.00
2024-05-09T06:41:01.436Z,100.00
2024-05-09T06:43:29.990Z,100.00
2024-05-09T06:46:04.213Z,100.00
2024-05-09T06:48:33.001Z,100.00
2024-05-09T06:51:06.463Z,100.00
2024-05-09T06:53:34.476Z,100.00
2024-05-09T06:56:07.455Z,100.00
2024-05-09T06:58:36.021Z,100.00
2024-05-09T07:01:10.642Z,100.00
2024-05-09T07:03:42.510Z,100.00
2024-05-09T07:06:18.287Z,99.46
2024-05-09T07:08:51.880Z,100.00
2024-05-09T07:11:24.289Z,98.68
2024-05-09T07:13:57.376Z,99.32
2024-05-09T07:16:33.052Z,98.50
2024-05-09T07:19:02.416Z,98.46
2024-05-09T07:21:34.187Z,96.43
2024-05-09T07:24:04.585Z,94.13
2024-05-09T07:26:35.371Z,93.83
2024-05-09T07:29:03.401Z,94.75
2024-05-09T07:31:38.630Z,94.61
2024-05-09T07:34:06.758Z,92.34
2024-05-09T07:36:37.700Z,89.96
2024-05-09T07:39:05.760Z,92.26
2024-05-09T07:41:37.273Z,98.83
2024-05-09T07:44:06.367Z,84.64
2024-05-09T07:47:47.676Z,80.17
2024-05-09T07:53:25.366Z,66.96
2024-05-09T07:54:49.954Z,65.86
2024-05-09T07:57:20.747Z,65.00
2024-05-09T07:59:48.685Z,65.42
2024-05-09T08:02:22.209Z,59.99
2024-05-09T08:04:50.194Z,58.89
2024-05-09T08:07:20.992Z,57.11
2024-05-09T08:09:48.950Z,58.28
2024-05-09T08:12:19.535Z,59.22
2024-05-09T08:14:47.702Z,57.02
2024-05-09T08:17:21.508Z,56.83
2024-05-09T08:19:49.583Z,64.96
2024-05-09T08:22:20.246Z,57.97
2024-05-09T08:24:48.589Z,61.78
2024-05-09T08:27:19.608Z,53.04
2024-05-09T08:29:47.580Z,51.19
2024-05-09T08:32:18.183Z,51.94
2024-05-09T08:34:48.994Z,50.93
2024-05-09T08:37:23.201Z,49.93
2024-05-09T08:39:53.647Z,50.90
2024-05-09T08:42:26.661Z,52.30
2024-05-09T08:44:54.630Z,53.57
2024-05-09T08:47:25.256Z,54.33
2024-05-09T08:50:00.780Z,55.67
2024-05-09T08:52:31.439Z,57.63
2024-05-09T08:55:00.864Z,59.23
2024-05-09T08:57:33.537Z,58.76
2024-05-09T09:00:10.221Z,55.86
2024-05-09T09:02:47.720Z,54.17
2024-05-09T09:05:21.662Z,52.58
2024-05-09T09:07:52.601Z,53.90
2024-05-09T09:10:29.502Z,53.84
2024-05-09T09:13:09.562Z,53.31
2024-05-09T09:15:48.142Z,51.78
2024-05-09T09:18:19.611Z,49.35
2024-05-09T09:20:50.528Z,49.34
2024-05-09T09:23:21.287Z,48.90
2024-05-09T09:25:50.222Z,45.91
2024-05-09T09:28:20.882Z,46.26
2024-05-09T09:30:52.984Z,42.98
2024-05-09T09:33:23.977Z,44.01
2024-05-09T09:35:56.555Z,44.29
2024-05-09T09:38:34.567Z,41.94
2024-05-09T09:41:08.352Z,42.26
2024-05-09T09:43:42.371Z,42.14
2024-05-09T09:46:13.902Z,42.96
2024-05-09T09:48:47.063Z,42.15
2024-05-09T09:51:19.849Z,41.92
2024-05-09T09:53:55.619Z,40.74
2024-05-09T09:56:25.375Z,40.89
2024-05-09T09:59:01.728Z,39.95
2024-05-09T10:01:31.669Z,39.55
2024-05-09T10:04:04.474Z,41.21
2024-05-09T10:06:42.938Z,39.94
2024-05-09T10:09:18.367Z,42.78
2024-05-09T10:11:51.848Z,40.90
2024-05-09T10:14:26.324Z,39.57
2024-05-09T10:17:05.517Z,41.41
2024-05-09T10:19:37.456Z,39.56
2024-05-09T10:22:09.263Z,40.71
2024-05-09T10:24:55.566Z,42.92
2024-05-09T10:27:31.162Z,43.02
2024-05-09T10:30:06.922Z,40.22
2024-05-09T10:32:41.488Z,39.84
2024-05-09T10:35:15.147Z,39.48
2024-05-09T10:37:46.782Z,40.90
2024-05-09T10:40:26.029Z,40.82
2024-05-09T10:43:03.491Z,41.13
2024-05-09T10:45:38.474Z,42.07
2024-05-09T10:48:08.998Z,44.23
2024-05-09T10:50:43.820Z,44.76
2024-05-09T10:53:14.439Z,43.01
2024-05-09T10:55:44.851Z,43.82
2024-05-09T10:58:18.178Z,48.56
2024-05-09T11:00:48.823Z,41.10
2024-05-09T11:03:19.209Z,41.02
2024-05-09T11:05:50.267Z,42.17
2024-05-09T11:08:22.330Z,41.04
2024-05-09T11:10:55.891Z,40.15
2024-05-09T11:13:31.298Z,37.52
2024-05-09T11:16:03.424Z,39.34
2024-05-09T11:18:36.541Z,36.63
2024-05-09T11:21:15.825Z,38.89
2024-05-09T11:23:47.231Z,38.55
2024-05-09T11:26:19.698Z,39.19
2024-05-09T11:28:48.323Z,37.60
2024-05-09T11:31:19.158Z,37.32
2024-05-09T11:33:47.474Z,37.47
2024-05-09T11:36:20.634Z,34.50
2024-05-09T11:38:51.944Z,38.18
2024-05-09T11:41:22.441Z,36.80
2024-05-09T11:43:50.324Z,37.13
2024-05-09T11:46:22.497Z,35.68
2024-05-09T11:48:51.093Z,35.87
2024-05-09T11:51:22.656Z,38.69
2024-05-09T11:53:53.380Z,38.35
2024-05-09T11:56:24.316Z,37.85
2024-05-09T11:58:53.297Z,37.44
2024-05-09T12:01:26.956Z,36.24
2024-05-09T12:03:55.979Z,36.65
2024-05-09T12:06:27.359Z,39.18
2024-05-09T12:08:58.075Z,38.44
2024-05-09T12:11:36.416Z,36.22
2024-05-09T12:14:05.615Z,36.16
2024-05-09T12:16:36.439Z,37.30
2024-05-09T12:19:04.602Z,34.38
2024-05-09T12:21:36.290Z,40.21
2024-05-09T12:24:06.904Z,36.66
2024-05-09T12:26:37.687Z,38.01
2024-05-09T12:29:05.675Z,39.20
2024-05-09T12:31:36.457Z,36.30
2024-05-09T12:34:05.211Z,39.65
2024-05-09T12:36:35.969Z,39.09
2024-05-09T12:39:06.590Z,36.98
2024-05-09T12:41:37.373Z,35.09
2024-05-09T12:44:05.785Z,35.38
2024-05-09T12:46:38.391Z,33.74
2024-05-09T12:49:14.999Z,34.58
2024-05-09T12:51:48.533Z,37.17
2024-05-09T12:54:20.097Z,34.91
2024-05-09T12:56:50.780Z,36.78
2024-05-09T12:59:19.118Z,38.99
2024-05-09T13:01:49.702Z,35.04
2024-05-09T13:04:17.926Z,36.40
2024-05-09T13:06:51.006Z,34.96
2024-05-09T13:09:22.434Z,32.89
2024-05-09T13:11:53.756Z,31.74
2024-05-09T13:14:21.976Z,36.18
2024-05-09T13:16:53.266Z,31.93
2024-05-09T13:19:21.327Z,30.41
2024-05-09T13:21:52.703Z,29.97
2024-05-09T13:24:23.769Z,28.33
2024-05-09T13:26:54.701Z,27.02
2024-05-09T13:29:22.635Z,26.38
2024-05-09T13:31:53.044Z,25.03
2024-05-09T13:34:21.030Z,24.88
2024-05-09T13:36:51.693Z,29.08
2024-05-09T13:39:19.533Z,24.74
2024-05-09T13:41:52.646Z,25.55
2024-05-09T13:44:20.539Z,24.88
2024-05-09T13:46:51.133Z,24.68
2024-05-09T13:49:19.160Z,22.72
2024-05-09T13:51:49.826Z,23.19
2024-05-09T13:54:20.057Z,22.88
2024-05-09T13:56:55.263Z,23.26
2024-05-09T13:59:23.185Z,21.24
2024-05-09T14:01:55.580Z,22.01
2024-05-09T14:04:23.727Z,20.37
2024-05-09T14:06:55.448Z,20.96
2024-05-09T14:09:23.634Z,21.08
2024-05-09T14:11:56.838Z,21.64
2024-05-09T14:14:25.015Z,20.58
2024-05-09T14:16:55.702Z,21.66
2024-05-09T14:19:23.596Z,21.33
2024-05-09T14:21:54.326Z,22.08
2024-05-09T14:24:22.594Z,21.36
2024-05-09T14:26:55.790Z,20.49
2024-05-09T14:29:23.622Z,21.87
2024-05-09T14:31:54.177Z,20.80
2024-05-09T14:34:22.101Z,20.17
2024-05-09T14:36:52.893Z,20.27
2024-05-09T14:39:20.760Z,20.81
2024-05-09T14:41:51.534Z,20.39
2024-05-09T14:44:21.993Z,19.54
2024-05-09T14:46:52.809Z,19.13
2024-05-09T14:49:20.846Z,19.92
2024-05-09T14:51:54.016Z,19.71
2024-05-09T14:54:21.838Z,18.36
2024-05-09T14:56:54.887Z,20.09
2024-05-09T14:59:25.382Z,19.83
2024-05-09T15:01:56.015Z,21.73
2024-05-09T15:04:24.136Z,23.61
2024-05-09T15:06:58.928Z,21.48
2024-05-09T15:09:36.790Z,22.29
2024-05-09T15:12:09.416Z,23.69
2024-05-09T15:14:40.040Z,23.39
2024-05-09T15:17:10.629Z,25.36
2024-05-09T15:19:38.747Z,22.98
2024-05-09T15:22:11.736Z,25.96
2024-05-09T15:24:42.039Z,25.49
2024-05-09T15:27:12.891Z,23.62
2024-05-09T15:29:43.476Z,23.73
2024-05-09T15:32:14.749Z,24.15
2024-05-09T15:34:42.738Z,24.04
2024-05-09T15:37:13.329Z,24.73
2024-05-09T15:39:41.373Z,25.79
2024-05-09T15:42:12.416Z,25.49
2024-05-09T15:44:45.172Z,23.66
2024-05-09T15:47:15.713Z,24.82
2024-05-09T15:49:43.683Z,25.12
2024-05-09T15:52:14.370Z,26.16
2024-05-09T15:54:42.438Z,25.89
2024-05-09T15:57:13.229Z,25.86
2024-05-09T15:59:43.845Z,26.94
2024-05-09T16:02:14.667Z,26.44
2024-05-09T16:04:42.874Z,25.65
2024-05-09T16:07:13.669Z,27.03
2024-05-09T16:09:41.648Z,27.44
2024-05-09T16:12:12.172Z,27.71
2024-05-09T16:14:42.739Z,28.27
2024-05-09T16:17:13.660Z,29.94
2024-05-09T16:19:41.723Z,29.69
2024-05-09T16:22:12.277Z,29.88
2024-05-09T16:24:40.358Z,31.06
2024-05-09T16:27:10.859Z,31.19
2024-05-09T16:29:39.084Z,33.63
2024-05-09T16:32:12.537Z,33.66
2024-05-09T16:34:40.590Z,34.19
2024-05-09T16:37:12.672Z,34.39
2024-05-09T16:39:40.700Z,35.91
2024-05-09T16:42:11.208Z,35.33
2024-05-09T16:44:39.036Z,37.05
2024-05-09T16:47:12.229Z,35.94
2024-05-09T16:49:40.088Z,37.51
2024-05-09T16:52:11.034Z,37.30
2024-05-09T16:54:41.234Z,38.07
2024-05-09T16:57:14.017Z,38.82
2024-05-09T16:59:45.272Z,39.03
2024-05-09T17:02:17.103Z,39.21
2024-05-09T17:04:48.207Z,40.34
2024-05-09T17:07:16.509Z,42.43
2024-05-09T17:09:47.471Z,42.18
2024-05-09T17:12:18.098Z,43.03
2024-05-09T17:14:48.608Z,45.25
2024-05-09T17:17:22.825Z,44.81
2024-05-09T17:19:50.678Z,46.76
2024-05-09T17:22:21.250Z,46.79
2024-05-09T17:24:49.395Z,48.78
2024-05-09T17:27:20.185Z,50.50
2024-05-09T17:29:48.177Z,52.68
2024-05-09T17:32:21.922Z,54.58
2024-05-09T17:34:50.270Z,55.85
2024-05-09T17:37:21.636Z,58.60
2024-05-09T17:39:49.595Z,60.29
2024-05-09T17:42:20.200Z,62.49
2024-05-09T17:44:48.348Z,63.80
2024-05-09T17:47:22.075Z,65.57
2024-05-09T17:49:53.060Z,66.80
2024-05-09T17:52:21.089Z,68.08
2024-05-09T17:54:51.824Z,69.74
2024-05-09T17:57:19.992Z,68.16
2024-05-09T17:59:52.110Z,67.38
2024-05-09T18:02:22.725Z,68.37
2024-05-09T18:04:53.612Z,69.58
2024-05-09T18:07:22.815Z,71.89
2024-05-09T18:09:53.996Z,70.01
2024-05-09T18:12:22.304Z,71.45
2024-05-09T18:14:53.642Z,72.38
2024-05-09T18:17:25.859Z,74.26
2024-05-09T18:19:57.253Z,75.50
2024-05-09T18:22:25.407Z,75.08
2024-05-09T18:24:56.230Z,74.09
2024-05-09T18:27:24.143Z,76.53
2024-05-09T18:29:54.619Z,77.88
2024-05-09T18:32:25.150Z,77.83
2024-05-09T18:34:56.057Z,80.73
2024-05-09T18:37:24.492Z,79.47
2024-05-09T18:39:55.114Z,79.45
2024-05-09T18:42:23.651Z,80.93
2024-05-09T18:44:54.278Z,81.96
2024-05-09T18:47:25.413Z,83.19
2024-05-09T18:49:56.946Z,84.04
2024-05-09T18:52:27.240Z,82.37
2024-05-09T18:54:58.644Z,82.21
2024-05-09T18:57:27.131Z,83.34
2024-05-09T18:59:58.161Z,83.98
2024-05-09T19:02:29.422Z,84.40
2024-05-09T19:05:01.375Z,84.91
2024-05-09T19:07:31.802Z,84.99
2024-05-09T19:10:05.575Z,84.80
2024-05-09T19:12:41.491Z,85.03
2024-05-09T19:15:12.514Z,84.52
2024-05-09T19:17:43.373Z,85.85
2024-05-09T19:20:24.871Z,85.67
2024-05-09T19:22:57.106Z,85.63
2024-05-09T19:25:27.930Z,84.28
2024-05-09T19:27:57.163Z,86.33
2024-05-09T19:30:36.843Z,86.91
2024-05-09T19:33:12.973Z,86.73
2024-05-09T19:35:44.767Z,85.74
2024-05-09T19:38:13.686Z,85.78
2024-05-09T19:40:45.075Z,86.30
2024-05-09T19:43:13.534Z,85.50
2024-05-09T19:45:44.188Z,85.58
2024-05-09T19:48:15.708Z,84.22
2024-05-09T19:50:48.352Z,85.84
2024-05-09T19:53:18.851Z,86.41
2024-05-09T19:55:49.526Z,85.91
2024-05-09T19:58:18.044Z,87.01
2024-05-09T20:00:48.824Z,88.18
2024-05-09T20:03:20.395Z,89.15
2024-05-09T20:05:51.479Z,88.68
2024-05-09T20:08:19.797Z,86.50
2024-05-09T20:10:50.647Z,87.45
2024-05-09T20:13:19.054Z,88.30
2024-05-09T20:15:49.656Z,88.16
2024-05-09T20:18:20.638Z,89.08
2024-05-09T20:20:53.910Z,89.58
2024-05-09T20:23:22.190Z,89.14
2024-05-09T20:25:53.610Z,89.76
2024-05-09T20:28:21.678Z,90.04
2024-05-09T20:30:52.949Z,90.01
2024-05-09T20:33:23.770Z,90.81
2024-05-09T20:35:55.681Z,91.40
2024-05-09T20:38:23.919Z,91.41
2024-05-09T20:40:55.240Z,91.34
2024-05-09T20:43:23.362Z,91.13
2024-05-09T20:45:54.092Z,90.91
2024-05-09T20:48:25.043Z,92.87
2024-05-09T20:50:56.825Z,92.46
2024-05-09T20:53:24.866Z,92.31
2024-05-09T20:55:55.761Z,92.84
2024-05-09T20:58:23.943Z,91.78
2024-05-09T21:00:55.752Z,91.84
2024-05-09T21:03:26.489Z,94.31
2024-05-09T21:05:57.105Z,94.16
2024-05-09T21:08:26.922Z,93.14
2024-05-09T21:11:00.717Z,94.72
2024-05-09T21:13:28.998Z,93.76
2024-05-09T21:15:59.646Z,95.00
2024-05-09T21:18:30.262Z,96.32
2024-05-09T21:21:00.743Z,95.75
2024-05-09T21:23:28.555Z,93.44
2024-05-09T21:25:59.296Z,93.59
2024-05-09T21:28:27.213Z,96.34
2024-05-09T21:30:57.852Z,99.06
2024-05-09T21:33:28.463Z,97.19
2024-05-09T21:35:59.341Z,96.84
2024-05-09T21:38:27.226Z,99.75
2024-05-09T21:40:57.985Z,98.57
2024-05-09T21:43:28.794Z,96.85
2024-05-09T21:45:59.300Z,99.02
2024-05-09T21:48:29.895Z,96.49
2024-05-09T21:51:00.432Z,97.04
2024-05-09T21:53:28.260Z,96.67
2024-05-09T21:55:58.681Z,99.07
2024-05-09T21:58:26.723Z,98.75
2024-05-09T22:00:57.591Z,99.82
2024-05-09T22:03:25.586Z,98.69
2024-05-09T22:05:58.781Z,99.69
2024-05-09T22:11:24.441Z,99.26
2024-05-09T22:13:52.257Z,98.40
2024-05-09T22:16:23.386Z,99.53
2024-05-09T22:18:51.376Z,97.53
2024-05-09T22:21:24.596Z,97.89
2024-05-09T22:23:53.048Z,99.65
2024-05-09T22:26:23.661Z,100.00
2024-05-09T22:28:51.540Z,98.97
2024-05-09T22:31:22.210Z,98.83
2024-05-09T22:33:50.351Z,98.90
2024-05-09T22:36:23.570Z,98.58
2024-05-09T22:38:51.388Z,99.68
2024-05-09T22:41:22.022Z,100.00
2024-05-09T22:43:49.850Z,100.00
2024-05-09T22:46:20.495Z,100.00
2024-05-09T22:48:48.567Z,100.00
2024-05-09T22:51:19.213Z,100.00
2024-05-09T22:53:49.715Z,100.00
2024-05-09T22:56:30.183Z,100.00
2024-05-09T22:58:58.291Z,100.00
2024-05-09T23:01:28.897Z,99.52
2024-05-09T23:03:56.991Z,99.11
2024-05-09T23:06:27.571Z,99.78
2024-05-09T23:08:58.102Z,100.00
2024-05-09T23:11:28.672Z,100.00
2024-05-09T23:13:56.567Z,100.00
2024-05-09T23:16:27.076Z,100.00
2024-05-09T23:18:55.075Z,100.00
2024-05-09T23:21:25.623Z,100.00
2024-05-09T23:23:53.596Z,100.00
2024-05-09T23:26:26.776Z,100.00
2024-05-09T23:28:54.628Z,100.00
2024-05-09T23:31:25.225Z,100.00
2024-05-09T23:33:55.279Z,100.00
2024-05-09T23:36:25.850Z,100.00
2024-05-09T23:38:53.684Z,100.00
2024-05-09T23:41:27.074Z,100.00
2024-05-09T23:43:54.973Z,100.00
2024-05-09T23:46:25.892Z,100.00
2024-05-09T23:48:54.009Z,100.00
2024-05-09T23:51:24.743Z,100.00
2024-05-09T23:53:52.639Z,100.00
2024-05-09T23:56:23.847Z,100.00
2024-05-09T23:58:54.383Z,100.00
